createdAt,value
2023-08-30T00:01:23.660Z,12.63
2023-08-30T00:03:50.070Z,12.30
2023-08-30T00:06:16.969Z,11.27
2023-08-30T00:08:43.367Z,13.75
2023-08-30T00:11:09.634Z,12.20
2023-08-30T00:13:36.471Z,11.93
2023-08-30T00:16:03.928Z,13.07
2023-08-30T00:18:30.576Z,12.32
2023-08-30T00:20:58.237Z,12.02
2023-08-30T00:23:24.584Z,12.52
2023-08-30T00:25:50.937Z,12.65
2023-08-30T00:28:17.260Z,12.18
2023-08-30T00:30:43.568Z,13.02
2023-08-30T00:33:09.959Z,12.50
2023-08-30T00:35:36.287Z,10.80
2023-08-30T00:38:02.590Z,9.85
2023-08-30T00:40:29.634Z,11.77
2023-08-30T00:42:55.924Z,11.25
2023-08-30T00:45:22.313Z,11.13
2023-08-30T00:47:48.651Z,10.32
2023-08-30T00:50:15.772Z,10.02
2023-08-30T00:52:42.311Z,10.30
2023-08-30T00:55:08.861Z,9.02
2023-08-30T00:57:35.302Z,10.70
2023-08-30T01:00:02.070Z,11.43
2023-08-30T01:02:28.469Z,11.98
2023-08-30T01:04:54.820Z,11.52
2023-08-30T01:07:21.126Z,11.15
2023-08-30T01:09:47.449Z,11.15
2023-08-30T01:12:31.502Z,11.13
2023-08-30T01:15:00.192Z,10.77
2023-08-30T01:17:26.944Z,11.48
2023-08-30T01:19:59.572Z,11.00
2023-08-30T01:22:38.273Z,10.50
2023-08-30T01:25:13.343Z,10.35
2023-08-30T01:27:40.253Z,10.18
2023-08-30T01:30:07.634Z,10.00
2023-08-30T01:32:34.857Z,9.48
2023-08-30T01:35:01.747Z,9.30
2023-08-30T01:37:28.389Z,9.93
2023-08-30T01:39:55.735Z,9.52
2023-08-30T01:42:23.273Z,9.07
2023-08-30T01:44:51.033Z,9.40
2023-08-30T01:47:18.127Z,7.85
2023-08-30T01:49:44.669Z,9.10
2023-08-30T01:52:11.658Z,9.13
2023-08-30T01:54:39.010Z,8.57
2023-08-30T01:57:05.414Z,9.25
2023-08-30T01:59:31.701Z,8.40
2023-08-30T02:01:58.356Z,9.38
2023-08-30T02:04:24.628Z,7.88
2023-08-30T02:07:09.379Z,8.70
2023-08-30T02:09:40.330Z,8.90
2023-08-30T02:12:10.706Z,8.18
2023-08-30T02:14:37.869Z,9.18
2023-08-30T02:17:04.391Z,9.82
2023-08-30T02:19:30.755Z,9.20
2023-08-30T02:21:57.280Z,9.15
2023-08-30T02:24:23.612Z,8.40
2023-08-30T02:26:49.977Z,8.20
2023-08-30T02:29:16.276Z,8.65
2023-08-30T02:31:42.591Z,8.00
2023-08-30T02:34:08.989Z,8.93
2023-08-30T02:36:35.401Z,8.75
2023-08-30T02:39:01.720Z,7.50
2023-08-30T02:41:28.083Z,8.32
2023-08-30T02:43:54.401Z,8.27
2023-08-30T02:46:20.668Z,7.97
2023-08-30T02:48:46.957Z,8.90
2023-08-30T02:51:13.391Z,7.55
2023-08-30T02:53:39.692Z,8.25
2023-08-30T02:56:06.002Z,8.55
2023-08-30T02:58:34.363Z,8.93
2023-08-30T03:01:01.388Z,8.88
2023-08-30T03:03:27.753Z,8.95
2023-08-30T03:05:54.051Z,8.63
2023-08-30T03:08:20.400Z,8.20
2023-08-30T03:10:46.742Z,8.20
2023-08-30T03:13:13.075Z,7.85
2023-08-30T03:15:39.648Z,8.85
2023-08-30T03:18:06.078Z,8.75
2023-08-30T03:20:32.398Z,8.57
2023-08-30T03:22:59.163Z,9.15
2023-08-30T03:25:25.595Z,8.88
2023-08-30T03:27:51.938Z,8.05
2023-08-30T03:30:18.269Z,8.48
2023-08-30T03:32:44.588Z,8.75
2023-08-30T03:35:11.059Z,9.45
2023-08-30T03:37:37.341Z,8.55
2023-08-30T03:40:05.659Z,7.97
2023-08-30T03:42:31.960Z,7.93
2023-08-30T03:44:58.288Z,8.93
2023-08-30T03:47:24.775Z,7.85
2023-08-30T03:49:51.184Z,9.35
2023-08-30T03:52:17.454Z,8.77
2023-08-30T03:54:43.820Z,8.07
2023-08-30T03:57:10.096Z,8.20
2023-08-30T03:59:36.392Z,8.35
2023-08-30T04:02:02.763Z,8.65
2023-08-30T04:04:29.037Z,9.50
2023-08-30T04:06:55.444Z,7.80
2023-08-30T04:09:22.161Z,8.40
2023-08-30T04:11:48.541Z,8.73
2023-08-30T04:14:14.822Z,8.68
2023-08-30T04:16:41.165Z,8.45
2023-08-30T04:19:07.718Z,8.60
2023-08-30T04:21:34.076Z,7.72
2023-08-30T04:24:00.438Z,7.80
2023-08-30T04:26:26.803Z,8.82
2023-08-30T04:28:53.323Z,8.45
2023-08-30T04:31:19.654Z,8.32
2023-08-30T04:33:45.980Z,8.02
2023-08-30T04:36:12.276Z,7.80
2023-08-30T04:38:45.254Z,8.20
2023-08-30T04:41:18.834Z,8.18
2023-08-30T04:43:45.167Z,8.07
2023-08-30T04:46:11.471Z,8.10
2023-08-30T04:48:37.828Z,7.45
2023-08-30T04:51:04.793Z,7.57
2023-08-30T04:53:31.348Z,7.85
2023-08-30T04:55:57.832Z,8.80
2023-08-30T04:58:24.247Z,8.70
2023-08-30T05:00:50.649Z,7.90
2023-08-30T05:03:17.025Z,8.38
2023-08-30T05:05:46.126Z,8.77
2023-08-30T05:08:12.690Z,8.68
2023-08-30T05:10:41.020Z,8.95
2023-08-30T05:13:07.319Z,9.20
2023-08-30T05:15:33.638Z,9.35
2023-08-30T05:18:00.086Z,9.65
2023-08-30T05:20:26.475Z,9.73
2023-08-30T05:22:52.780Z,9.00
2023-08-30T05:25:19.049Z,10.10
2023-08-30T05:27:45.304Z,9.95
2023-08-30T05:30:12.012Z,9.93
2023-08-30T05:32:38.309Z,9.90
2023-08-30T05:35:04.862Z,10.23
2023-08-30T05:37:31.415Z,9.98
2023-08-30T05:39:58.358Z,10.10
2023-08-30T05:42:24.775Z,10.48
2023-08-30T05:44:51.035Z,10.05
2023-08-30T05:47:18.081Z,9.70
2023-08-30T05:49:44.726Z,11.43
2023-08-30T05:52:11.083Z,9.70
2023-08-30T05:54:37.396Z,9.40
2023-08-30T05:57:04.267Z,10.15
2023-08-30T05:59:31.215Z,9.45
2023-08-30T06:01:57.487Z,9.57
2023-08-30T06:04:23.940Z,10.35
2023-08-30T06:06:50.278Z,10.05
2023-08-30T06:09:16.631Z,8.88
2023-08-30T06:11:43.300Z,9.82
2023-08-30T06:14:09.667Z,8.45
2023-08-30T06:16:36.018Z,9.98
2023-08-30T06:19:02.346Z,9.05
2023-08-30T06:21:29.054Z,8.18
2023-08-30T06:23:55.470Z,9.00
2023-08-30T06:26:22.011Z,8.73
2023-08-30T06:28:58.725Z,8.40
2023-08-30T06:31:33.894Z,9.73
2023-08-30T06:34:00.684Z,9.65
2023-08-30T06:36:27.318Z,9.38
2023-08-30T06:38:53.579Z,9.02
2023-08-30T06:41:19.982Z,8.68
2023-08-30T06:43:46.263Z,8.80
2023-08-30T06:46:12.577Z,8.40
2023-08-30T06:48:39.037Z,8.32
2023-08-30T06:51:05.444Z,7.43
2023-08-30T06:53:31.787Z,7.35
2023-08-30T06:56:01.894Z,6.60
2023-08-30T06:58:28.469Z,6.55
2023-08-30T07:00:54.951Z,7.10
2023-08-30T07:03:21.724Z,6.95
2023-08-30T07:05:50.782Z,7.00
2023-08-30T07:08:17.070Z,6.75
2023-08-30T07:10:43.518Z,7.00
2023-08-30T07:13:13.758Z,6.40
2023-08-30T07:15:40.871Z,6.15
2023-08-30T07:18:07.637Z,6.85
2023-08-30T07:20:34.532Z,6.88
2023-08-30T07:23:00.771Z,6.35
2023-08-30T07:25:27.076Z,6.20
2023-08-30T07:27:53.388Z,5.75
2023-08-30T07:30:19.776Z,5.47
2023-08-30T07:32:46.078Z,5.75
2023-08-30T07:35:14.992Z,5.68
2023-08-30T07:37:41.912Z,5.30
2023-08-30T07:40:08.592Z,4.85
2023-08-30T07:42:34.943Z,5.20
2023-08-30T07:45:01.449Z,4.43
2023-08-30T07:47:27.729Z,4.55
2023-08-30T07:49:54.019Z,4.57
2023-08-30T07:52:28.338Z,5.22
2023-08-30T07:55:05.849Z,4.85
2023-08-30T07:57:32.245Z,4.63
2023-08-30T07:59:58.507Z,4.72
2023-08-30T08:02:25.078Z,4.80
2023-08-30T08:04:53.192Z,4.35
2023-08-30T08:07:19.455Z,5.13
2023-08-30T08:09:46.044Z,5.38
2023-08-30T08:12:12.932Z,4.82
2023-08-30T08:14:39.264Z,4.60
2023-08-30T08:17:05.541Z,4.47
2023-08-30T08:19:31.865Z,3.95
2023-08-30T08:22:00.514Z,4.45
2023-08-30T08:24:26.811Z,4.25
2023-08-30T08:26:53.204Z,3.90
2023-08-30T08:29:19.516Z,5.03
2023-08-30T08:31:45.942Z,4.18
2023-08-30T08:34:13.361Z,4.10
2023-08-30T08:36:40.358Z,3.70
2023-08-30T08:39:06.945Z,3.65
2023-08-30T08:41:39.225Z,3.63
2023-08-30T08:44:07.463Z,3.38
2023-08-30T08:46:35.488Z,3.60
2023-08-30T08:49:05.099Z,3.35
2023-08-30T08:51:33.223Z,3.17
2023-08-30T08:54:02.370Z,2.83
2023-08-30T08:56:28.890Z,3.00
2023-08-30T08:58:55.647Z,2.92
2023-08-30T09:01:34.949Z,2.78
2023-08-30T09:04:05.069Z,3.33
2023-08-30T09:06:31.452Z,2.97
2023-08-30T09:08:58.402Z,3.00
2023-08-30T09:11:33.081Z,3.10
2023-08-30T09:14:06.820Z,3.50
2023-08-30T09:16:33.227Z,3.03
2023-08-30T09:19:09.802Z,3.13
2023-08-30T09:21:37.701Z,2.92
2023-08-30T09:24:05.169Z,3.08
2023-08-30T09:26:36.682Z,2.80
2023-08-30T09:29:06.516Z,3.42
2023-08-30T09:31:36.049Z,3.30
2023-08-30T09:34:02.789Z,3.20
2023-08-30T09:36:36.426Z,3.42
2023-08-30T09:39:06.696Z,3.20
2023-08-30T09:41:34.051Z,2.88
2023-08-30T09:44:12.957Z,3.72
2023-08-30T09:49:19.077Z,3.28
2023-08-30T09:51:47.489Z,3.90
2023-08-30T09:54:32.023Z,3.78
2023-08-30T09:57:05.952Z,3.60
2023-08-30T09:59:33.049Z,3.60
2023-08-30T10:02:01.350Z,3.90
2023-08-30T10:04:29.174Z,3.55
2023-08-30T10:06:56.816Z,3.92
2023-08-30T10:09:24.542Z,3.47
2023-08-30T10:11:51.549Z,3.28
2023-08-30T10:14:18.071Z,3.70
2023-08-30T10:16:48.651Z,3.25
2023-08-30T10:19:21.244Z,3.67
2023-08-30T10:22:09.956Z,3.83
2023-08-30T10:25:02.021Z,3.90
2023-08-30T10:27:32.945Z,3.55
2023-08-30T10:30:00.281Z,3.38
2023-08-30T10:32:26.576Z,3.47
2023-08-30T10:34:52.973Z,3.83
2023-08-30T10:37:27.705Z,3.90
2023-08-30T10:39:54.364Z,3.33
2023-08-30T10:42:24.098Z,3.83
2023-08-30T10:44:54.257Z,3.97
2023-08-30T10:47:38.877Z,4.05
2023-08-30T10:50:07.670Z,3.40
2023-08-30T10:52:35.035Z,3.33
2023-08-30T10:55:11.505Z,3.42
2023-08-30T10:57:38.314Z,3.15
2023-08-30T11:00:09.324Z,3.38
2023-08-30T11:02:37.362Z,3.53
2023-08-30T11:05:07.184Z,3.15
2023-08-30T11:07:33.865Z,2.55
2023-08-30T11:10:00.368Z,3.17
2023-08-30T11:12:26.805Z,3.13
2023-08-30T11:14:53.265Z,3.00
2023-08-30T11:17:20.060Z,2.90
2023-08-30T11:19:46.568Z,2.60
2023-08-30T11:22:17.848Z,2.88
2023-08-30T11:24:46.120Z,2.25
2023-08-30T11:27:12.523Z,2.70
2023-08-30T11:29:40.447Z,2.80
2023-08-30T11:32:08.432Z,2.90
2023-08-30T11:34:34.706Z,2.80
2023-08-30T11:37:01.291Z,2.72
2023-08-30T11:39:29.372Z,3.10
2023-08-30T11:41:56.357Z,2.70
2023-08-30T11:44:24.781Z,2.40
2023-08-30T11:46:58.408Z,3.00
2023-08-30T11:49:24.817Z,3.00
2023-08-30T11:51:53.767Z,3.15
2023-08-30T11:54:21.342Z,3.03
2023-08-30T11:56:47.844Z,2.95
2023-08-30T11:59:21.748Z,3.15
2023-08-30T12:01:48.847Z,3.40
2023-08-30T12:04:15.291Z,2.97
2023-08-30T12:06:41.679Z,3.58
2023-08-30T12:09:13.203Z,3.10
2023-08-30T12:14:05.998Z,3.15
2023-08-30T12:16:32.434Z,2.97
2023-08-30T12:19:08.064Z,3.45
2023-08-30T12:21:40.999Z,3.13
2023-08-30T12:24:07.928Z,2.97
2023-08-30T12:26:34.527Z,3.25
2023-08-30T12:29:00.833Z,2.95
2023-08-30T12:31:28.567Z,2.92
2023-08-30T12:33:55.122Z,3.00
2023-08-30T12:36:21.470Z,2.40
2023-08-30T12:38:47.953Z,2.45
2023-08-30T12:41:14.354Z,2.08
2023-08-30T12:43:40.678Z,2.25
2023-08-30T12:46:08.321Z,1.85
2023-08-30T12:48:34.711Z,1.75
2023-08-30T12:51:01.524Z,1.88
2023-08-30T12:53:27.774Z,1.77
2023-08-30T12:55:54.682Z,1.73
2023-08-30T12:58:20.977Z,2.08
2023-08-30T13:00:47.486Z,1.73
2023-08-30T13:03:14.725Z,1.40
2023-08-30T13:05:41.441Z,1.90
2023-08-30T13:08:07.954Z,1.50
2023-08-30T13:10:34.882Z,1.80
2023-08-30T13:13:01.387Z,1.92
2023-08-30T13:15:27.727Z,1.90
2023-08-30T13:17:54.333Z,2.10
2023-08-30T13:20:21.079Z,2.15
2023-08-30T13:22:48.171Z,2.03
2023-08-30T13:25:14.684Z,1.88
2023-08-30T13:27:41.046Z,2.03
2023-08-30T13:30:08.263Z,2.10
2023-08-30T13:32:34.762Z,1.85
2023-08-30T13:35:01.017Z,1.92
2023-08-30T13:37:27.273Z,2.33
2023-08-30T13:39:54.185Z,2.00
2023-08-30T13:42:20.576Z,2.05
2023-08-30T13:44:47.345Z,1.80
2023-08-30T13:47:13.715Z,1.90
2023-08-30T13:49:40.091Z,1.90
2023-08-30T13:52:06.635Z,1.80
2023-08-30T13:54:33.021Z,1.40
2023-08-30T13:56:59.618Z,1.80
2023-08-30T13:59:25.922Z,1.75
2023-08-30T14:01:52.307Z,1.70
2023-08-30T14:04:18.805Z,1.92
2023-08-30T14:06:45.119Z,2.00
2023-08-30T14:09:11.383Z,2.05
2023-08-30T14:11:39.056Z,1.85
2023-08-30T14:14:05.443Z,1.85
2023-08-30T14:16:31.863Z,1.60
2023-08-30T14:19:01.066Z,1.88
2023-08-30T14:21:28.432Z,1.80
2023-08-30T14:23:55.206Z,1.92
2023-08-30T14:26:21.486Z,2.13
2023-08-30T14:28:47.771Z,2.30
2023-08-30T14:31:14.786Z,2.22
2023-08-30T14:33:43.629Z,2.13
2023-08-30T14:36:09.970Z,2.55
2023-08-30T14:38:37.709Z,2.50
2023-08-30T14:41:04.113Z,2.60
2023-08-30T14:43:30.468Z,2.60
2023-08-30T14:46:08.942Z,2.70
2023-08-30T14:48:36.641Z,2.53
2023-08-30T14:51:03.341Z,2.90
2023-08-30T14:53:30.426Z,2.92
2023-08-30T14:55:56.973Z,2.85
2023-08-30T14:58:23.365Z,3.03
2023-08-30T15:00:49.979Z,2.92
2023-08-30T15:03:16.692Z,3.20
2023-08-30T15:05:43.593Z,3.33
2023-08-30T15:08:10.214Z,3.25
2023-08-30T15:10:36.895Z,3.13
2023-08-30T15:13:03.305Z,2.85
2023-08-30T15:15:31.444Z,3.33
2023-08-30T15:17:57.799Z,3.08
2023-08-30T15:20:24.258Z,3.47
2023-08-30T15:22:51.630Z,3.40
2023-08-30T15:25:18.053Z,3.22
2023-08-30T15:27:44.448Z,3.38
2023-08-30T15:30:11.151Z,3.38
2023-08-30T15:32:37.522Z,3.05
2023-08-30T15:35:04.561Z,3.78
2023-08-30T15:37:30.837Z,2.97
2023-08-30T15:40:02.633Z,3.15
2023-08-30T15:42:30.690Z,3.40
2023-08-30T15:44:57.010Z,3.45
2023-08-30T15:47:23.355Z,4.13
2023-08-30T15:49:49.914Z,3.03
2023-08-30T15:52:16.231Z,3.83
2023-08-30T15:54:42.606Z,4.85
2023-08-30T15:57:09.231Z,3.80
2023-08-30T15:59:35.566Z,4.30
2023-08-30T16:02:02.029Z,4.00
2023-08-30T16:04:28.931Z,4.13
2023-08-30T16:06:56.460Z,4.05
2023-08-30T16:09:22.707Z,3.83
2023-08-30T16:11:48.994Z,3.90
2023-08-30T16:14:15.360Z,3.97
2023-08-30T16:16:42.719Z,4.80
2023-08-30T16:19:11.474Z,4.07
2023-08-30T16:21:37.774Z,3.85
2023-08-30T16:24:05.499Z,3.92
2023-08-30T16:26:31.781Z,3.80
2023-08-30T16:28:58.109Z,4.13
2023-08-30T16:31:29.299Z,3.70
2023-08-30T16:33:55.605Z,4.22
2023-08-30T16:36:21.868Z,4.07
2023-08-30T16:38:49.508Z,4.13
2023-08-30T16:41:16.012Z,4.20
2023-08-30T16:43:42.345Z,3.97
2023-08-30T16:46:08.658Z,4.55
2023-08-30T16:48:35.026Z,4.40
2023-08-30T16:51:01.428Z,4.20
2023-08-30T16:53:27.800Z,3.88
2023-08-30T16:55:54.630Z,4.55
2023-08-30T16:58:22.257Z,4.60
2023-08-30T17:00:48.608Z,4.63
2023-08-30T17:03:15.167Z,4.80
2023-08-30T17:05:41.848Z,5.20
2023-08-30T17:08:08.230Z,4.43
2023-08-30T17:10:36.585Z,7.55
2023-08-30T17:13:04.214Z,4.47
2023-08-30T17:15:30.568Z,4.72
2023-08-30T17:17:56.885Z,4.45
2023-08-30T17:20:23.254Z,4.85
2023-08-30T17:22:49.666Z,5.20
2023-08-30T17:25:17.164Z,5.10
2023-08-30T17:27:43.946Z,5.10
2023-08-30T17:30:14.221Z,5.10
2023-08-30T17:32:40.656Z,4.63
2023-08-30T17:35:07.780Z,5.40
2023-08-30T17:37:34.108Z,4.78
2023-08-30T17:40:00.493Z,5.28
2023-08-30T17:42:26.913Z,4.60
2023-08-30T17:44:59.031Z,4.88
2023-08-30T17:47:26.184Z,4.60
2023-08-30T17:49:52.621Z,4.10
2023-08-30T17:52:18.936Z,4.65
2023-08-30T17:54:45.342Z,4.50
2023-08-30T17:57:11.739Z,4.18
2023-08-30T17:59:38.072Z,4.32
2023-08-30T18:02:04.586Z,4.10
2023-08-30T18:04:31.538Z,4.43
2023-08-30T18:06:58.328Z,3.80
2023-08-30T18:09:24.633Z,4.38
2023-08-30T18:11:50.914Z,4.70
2023-08-30T18:14:17.710Z,4.15
2023-08-30T18:16:44.004Z,4.38
2023-08-30T18:19:10.320Z,4.15
2023-08-30T18:21:36.677Z,4.50
2023-08-30T18:24:16.372Z,4.82
2023-08-30T18:26:44.693Z,4.30
2023-08-30T18:29:10.982Z,5.40
2023-08-30T18:31:37.350Z,3.75
2023-08-30T18:34:03.866Z,3.70
2023-08-30T18:36:31.082Z,3.67
2023-08-30T18:38:57.456Z,3.50
2023-08-30T18:41:23.780Z,3.20
2023-08-30T18:43:50.099Z,2.85
2023-08-30T18:46:19.291Z,3.03
2023-08-30T18:48:46.313Z,2.78
2023-08-30T18:51:12.679Z,2.65
2023-08-30T18:53:38.956Z,2.50
2023-08-30T18:56:05.553Z,2.35
2023-08-30T18:58:32.320Z,2.90
2023-08-30T19:01:00.127Z,2.10
2023-08-30T19:03:26.493Z,2.28
2023-08-30T19:05:52.894Z,2.03
2023-08-30T19:08:19.169Z,2.35
2023-08-30T19:10:45.496Z,2.42
2023-08-30T19:13:12.496Z,2.35
2023-08-30T19:15:42.088Z,2.03
2023-08-30T19:18:08.545Z,1.98
2023-08-30T19:20:34.944Z,2.25
2023-08-30T19:23:01.810Z,2.28
2023-08-30T19:25:30.769Z,2.03
2023-08-30T19:27:57.155Z,2.17
2023-08-30T19:30:24.344Z,1.85
2023-08-30T19:32:50.651Z,1.83
2023-08-30T19:35:17.121Z,1.60
2023-08-30T19:37:43.428Z,2.30
2023-08-30T19:40:10.067Z,2.50
2023-08-30T19:42:37.905Z,2.28
2023-08-30T19:45:05.292Z,2.38
2023-08-30T19:47:31.720Z,2.22
2023-08-30T19:49:58.696Z,2.00
2023-08-30T19:52:25.337Z,2.30
2023-08-30T19:54:52.163Z,2.20
2023-08-30T19:57:18.600Z,2.20
2023-08-30T19:59:45.428Z,2.92
2023-08-30T20:02:12.838Z,2.17
2023-08-30T20:04:39.155Z,2.95
2023-08-30T20:07:05.820Z,2.60
2023-08-30T20:09:33.134Z,1.98
2023-08-30T20:11:59.475Z,2.28
2023-08-30T20:14:26.401Z,2.22
2023-08-30T20:16:52.712Z,2.70
2023-08-30T20:19:20.060Z,2.50
2023-08-30T20:21:46.769Z,2.40
2023-08-30T20:24:13.545Z,2.33
2023-08-30T20:26:39.996Z,2.55
2023-08-30T20:29:06.460Z,2.90
2023-08-30T20:31:34.784Z,2.90
2023-08-30T20:34:01.407Z,2.83
2023-08-30T20:36:39.131Z,2.70
2023-08-30T20:39:06.724Z,2.63
2023-08-30T20:41:33.026Z,3.00
2023-08-30T20:43:59.345Z,2.55
2023-08-30T20:46:26.011Z,2.90
2023-08-30T20:48:52.297Z,2.42
2023-08-30T20:51:18.613Z,2.65
2023-08-30T20:53:46.900Z,2.90
2023-08-30T20:56:13.223Z,2.83
2023-08-30T20:58:42.179Z,2.40
2023-08-30T21:01:09.714Z,2.88
2023-08-30T21:03:36.206Z,2.65
2023-08-30T21:06:02.589Z,2.78
2023-08-30T21:08:28.908Z,3.10
2023-08-30T21:10:55.210Z,2.65
2023-08-30T21:13:21.473Z,2.80
2023-08-30T21:15:47.989Z,3.58
2023-08-30T21:18:14.434Z,3.58
2023-08-30T21:20:40.786Z,3.00
2023-08-30T21:23:09.760Z,2.88
2023-08-30T21:25:37.501Z,3.08
2023-08-30T21:28:04.020Z,3.15
2023-08-30T21:30:40.458Z,2.70
2023-08-30T21:33:07.250Z,3.00
2023-08-30T21:35:40.244Z,2.85
2023-08-30T21:38:07.238Z,2.63
2023-08-30T21:40:33.760Z,2.65
2023-08-30T21:43:00.109Z,3.00
2023-08-30T21:45:26.442Z,3.00
2023-08-30T21:47:52.862Z,2.90
2023-08-30T21:50:19.278Z,2.97
2023-08-30T21:52:45.647Z,2.97
2023-08-30T21:55:12.283Z,3.15
2023-08-30T21:57:38.782Z,3.40
2023-08-30T22:00:09.442Z,4.07
2023-08-30T22:02:36.281Z,4.00
2023-08-30T22:05:02.670Z,4.40
2023-08-30T22:07:29.135Z,4.10
2023-08-30T22:09:56.090Z,4.35
2023-08-30T22:12:22.887Z,4.22
2023-08-30T22:14:50.095Z,4.03
2023-08-30T22:17:16.762Z,4.07
2023-08-30T22:19:43.348Z,4.13
2023-08-30T22:22:09.850Z,3.92
2023-08-30T22:24:36.343Z,4.35
2023-08-30T22:27:02.722Z,4.32
2023-08-30T22:29:29.017Z,4.20
2023-08-30T22:31:55.332Z,3.90
2023-08-30T22:34:21.626Z,4.18
2023-08-30T22:36:47.980Z,4.15
2023-08-30T22:39:14.247Z,3.67
2023-08-30T22:41:40.637Z,4.10
2023-08-30T22:44:07.068Z,3.55
2023-08-30T22:46:37.830Z,3.67
2023-08-30T22:49:04.928Z,3.67
2023-08-30T22:51:33.417Z,3.55
2023-08-30T22:54:04.553Z,4.13
2023-08-30T22:56:30.859Z,3.65
2023-08-30T22:58:57.202Z,3.80
2023-08-30T23:01:23.538Z,3.85
2023-08-30T23:03:49.926Z,3.50
2023-08-30T23:06:17.143Z,3.53
2023-08-30T23:08:46.153Z,3.33
2023-08-30T23:11:12.561Z,4.07
2023-08-30T23:13:39.020Z,3.17
2023-08-30T23:16:05.418Z,3.30
2023-08-30T23:18:31.853Z,3.50
2023-08-30T23:20:58.146Z,2.70
2023-08-30T23:23:24.479Z,3.17
2023-08-30T23:25:50.774Z,3.42
2023-08-30T23:28:17.088Z,3.55
2023-08-30T23:30:43.416Z,3.33
2023-08-30T23:33:10.010Z,3.65
2023-08-30T23:35:36.611Z,3.38
2023-08-30T23:38:02.980Z,3.50
2023-08-30T23:40:29.381Z,3.58
2023-08-30T23:42:55.659Z,3.70
2023-08-30T23:45:22.044Z,3.30
2023-08-30T23:47:48.413Z,3.38
2023-08-30T23:50:14.807Z,3.63
2023-08-30T23:52:41.129Z,3.30
2023-08-30T23:55:09.636Z,3.30
2023-08-30T23:57:36.024Z,3.10
